sensor_id;sensor_type;location;lat;lon;timestamp;pressure;altitude;pressure_sealevel;temperature;humidity
40073;BME280;25774;52.256;9.356;2023-01-30T00:01:14;100308.09;;;2.50;100.00
40073;BME280;25774;52.256;9.356;2023-01-30T00:03:40;100288.00;;;2.55;100.00
40073;BME280;25774;52.256;9.356;2023-01-30T00:06:05;100286.97;;;2.61;100.00
40073;BME280;25774;52.256;9.356;2023-01-30T00:08:30;100280.00;;;2.63;100.00
40073;BME280;25774;52.256;9.356;2023-01-30T00:10:56;100289.50;;;2.64;100.00
40073;BME280;25774;52.256;9.356;2023-01-30T00:13:21;100301.63;;;2.67;100.00
40073;BME280;25774;52.256;9.356;2023-01-30T00:15:47;100304.59;;;2.87;100.00
40073;BME280;25774;52.256;9.356;2023-01-30T00:18:12;100303.50;;;2.60;100.00
40073;BME280;25774;52.256;9.356;2023-01-30T00:20:38;100327.31;;;2.82;100.00
40073;BME280;25774;52.256;9.356;2023-01-30T00:23:03;100323.00;;;2.79;100.00
40073;BME280;25774;52.256;9.356;2023-01-30T00:25:29;100327.59;;;2.70;100.00
40073;BME280;25774;52.256;9.356;2023-01-30T00:27:57;100317.28;;;2.65;100.00
40073;BME280;25774;52.256;9.356;2023-01-30T00:30:22;100313.72;;;2.68;100.00
40073;BME280;25774;52.256;9.356;2023-01-30T00:32:53;100325.25;;;2.93;100.00
40073;BME280;25774;52.256;9.356;2023-01-30T00:35:18;100314.38;;;2.77;100.00
40073;BME280;25774;52.256;9.356;2023-01-30T00:37:43;100298.72;;;2.79;100.00
40073;BME280;25774;52.256;9.356;2023-01-30T00:40:10;100276.25;;;2.75;100.00
40073;BME280;25774;52.256;9.356;2023-01-30T00:42:36;100276.25;;;2.73;100.00
40073;BME280;25774;52.256;9.356;2023-01-30T00:45:19;100301.88;;;2.90;100.00
40073;BME280;25774;52.256;9.356;2023-01-30T00:48:03;100313.28;;;2.86;100.00
40073;BME280;25774;52.256;9.356;2023-01-30T00:50:29;100307.38;;;2.79;100.00
40073;BME280;25774;52.256;9.356;2023-01-30T00:53:08;100299.72;;;2.73;100.00
40073;BME280;25774;52.256;9.356;2023-01-30T00:55:33;100310.66;;;2.88;100.00
40073;BME280;25774;52.256;9.356;2023-01-30T00:57:59;100299.78;;;2.70;100.00
40073;BME280;25774;52.256;9.356;2023-01-30T01:00:25;100295.50;;;3.02;100.00
40073;BME280;25774;52.256;9.356;2023-01-30T01:02:51;100304.13;;;2.71;100.00
40073;BME280;25774;52.256;9.356;2023-01-30T01:05:17;100301.25;;;2.82;100.00
40073;BME280;25774;52.256;9.356;2023-01-30T01:07:42;100301.03;;;2.90;100.00
40073;BME280;25774;52.256;9.356;2023-01-30T01:10:08;100299.47;;;2.84;100.00
40073;BME280;25774;52.256;9.356;2023-01-30T01:12:33;100292.97;;;2.99;100.00
40073;BME280;25774;52.256;9.356;2023-01-30T01:14:59;100310.22;;;3.05;100.00
40073;BME280;25774;52.256;9.356;2023-01-30T01:17:24;100301.88;;;2.92;100.00
40073;BME280;25774;52.256;9.356;2023-01-30T01:19:49;100299.25;;;2.92;100.00
40073;BME280;25774;52.256;9.356;2023-01-30T01:22:15;100293.03;;;2.97;100.00
40073;BME280;25774;52.256;9.356;2023-01-30T01:24:40;100273.72;;;2.72;100.00
40073;BME280;25774;52.256;9.356;2023-01-30T01:27:05;100269.06;;;2.83;100.00
40073;BME280;25774;52.256;9.356;2023-01-30T01:29:31;100271.44;;;2.92;100.00
40073;BME280;25774;52.256;9.356;2023-01-30T01:31:56;100260.03;;;2.96;100.00
40073;BME280;25774;52.256;9.356;2023-01-30T01:34:22;100257.50;;;2.93;100.00
40073;BME280;25774;52.256;9.356;2023-01-30T01:36:48;100244.69;;;2.86;100.00
40073;BME280;25774;52.256;9.356;2023-01-30T01:39:13;100242.38;;;3.06;100.00
40073;BME280;25774;52.256;9.356;2023-01-30T01:41:38;100240.22;;;2.91;100.00
40073;BME280;25774;52.256;9.356;2023-01-30T01:44:06;100247.59;;;3.06;100.00
40073;BME280;25774;52.256;9.356;2023-01-30T01:49:22;100258.19;;;3.33;100.00
40073;BME280;25774;52.256;9.356;2023-01-30T01:52:11;100253.25;;;3.22;100.00
40073;BME280;25774;52.256;9.356;2023-01-30T01:57:16;100261.16;;;3.19;100.00
40073;BME280;25774;52.256;9.356;2023-01-30T01:59:49;100267.81;;;3.31;100.00
40073;BME280;25774;52.256;9.356;2023-01-30T02:02:16;100257.06;;;3.10;100.00
40073;BME280;25774;52.256;9.356;2023-01-30T02:04:45;100261.97;;;3.22;100.00
40073;BME280;25774;52.256;9.356;2023-01-30T02:07:28;100265.44;;;3.21;100.00
40073;BME280;25774;52.256;9.356;2023-01-30T02:09:57;100254.97;;;3.23;100.00
40073;BME280;25774;52.256;9.356;2023-01-30T02:12:23;100256.75;;;3.21;100.00
40073;BME280;25774;52.256;9.356;2023-01-30T02:14:49;100247.16;;;3.23;100.00
40073;BME280;25774;52.256;9.356;2023-01-30T02:17:14;100246.31;;;3.22;100.00
40073;BME280;25774;52.256;9.356;2023-01-30T02:19:48;100240.81;;;3.32;100.00
40073;BME280;25774;52.256;9.356;2023-01-30T02:36:09;100221.31;;;3.45;100.00
40073;BME280;25774;52.256;9.356;2023-01-30T02:38:47;100193.31;;;3.52;100.00
40073;BME280;25774;52.256;9.356;2023-01-30T02:42:18;100191.97;;;3.66;100.00
40073;BME280;25774;52.256;9.356;2023-01-30T02:47:15;100185.53;;;3.78;100.00
40073;BME280;25774;52.256;9.356;2023-01-30T02:49:51;100176.50;;;3.60;100.00
40073;BME280;25774;52.256;9.356;2023-01-30T02:52:19;100181.44;;;3.69;100.00
40073;BME280;25774;52.256;9.356;2023-01-30T02:54:46;100182.00;;;3.79;100.00
40073;BME280;25774;52.256;9.356;2023-01-30T02:57:18;100198.34;;;3.86;100.00
40073;BME280;25774;52.256;9.356;2023-01-30T02:59:47;100172.00;;;3.65;100.00
40073;BME280;25774;52.256;9.356;2023-01-30T03:08:08;100187.28;;;3.78;100.00
40073;BME280;25774;52.256;9.356;2023-01-30T03:10:49;100176.00;;;3.77;100.00
40073;BME280;25774;52.256;9.356;2023-01-30T03:16:17;100181.53;;;3.94;100.00
40073;BME280;25774;52.256;9.356;2023-01-30T03:18:46;100179.28;;;3.84;100.00
40073;BME280;25774;52.256;9.356;2023-01-30T03:21:11;100181.72;;;3.88;100.00
40073;BME280;25774;52.256;9.356;2023-01-30T03:23:37;100186.09;;;3.88;100.00
40073;BME280;25774;52.256;9.356;2023-01-30T03:26:09;100176.41;;;3.91;100.00
40073;BME280;25774;52.256;9.356;2023-01-30T03:28:35;100180.69;;;3.94;100.00
40073;BME280;25774;52.256;9.356;2023-01-30T03:31:01;100183.22;;;3.95;100.00
40073;BME280;25774;52.256;9.356;2023-01-30T03:33:26;100191.03;;;3.97;100.00
40073;BME280;25774;52.256;9.356;2023-01-30T03:35:52;100163.66;;;3.82;100.00
40073;BME280;25774;52.256;9.356;2023-01-30T03:38:18;100173.47;;;4.02;100.00
40073;BME280;25774;52.256;9.356;2023-01-30T03:40:43;100173.09;;;3.86;100.00
40073;BME280;25774;52.256;9.356;2023-01-30T03:43:09;100160.09;;;3.85;100.00
40073;BME280;25774;52.256;9.356;2023-01-30T03:45:35;100172.56;;;4.03;100.00
40073;BME280;25774;52.256;9.356;2023-01-30T03:48:00;100159.09;;;3.89;100.00
40073;BME280;25774;52.256;9.356;2023-01-30T03:50:25;100172.81;;;4.22;100.00
40073;BME280;25774;52.256;9.356;2023-01-30T03:52:51;100163.38;;;4.18;100.00
40073;BME280;25774;52.256;9.356;2023-01-30T03:55:16;100161.00;;;4.10;100.00
40073;BME280;25774;52.256;9.356;2023-01-30T03:57:41;100150.09;;;3.97;100.00
40073;BME280;25774;52.256;9.356;2023-01-30T04:00:07;100154.31;;;4.02;100.00
40073;BME280;25774;52.256;9.356;2023-01-30T04:02:33;100157.47;;;4.11;100.00
40073;BME280;25774;52.256;9.356;2023-01-30T04:04:58;100174.78;;;4.15;100.00
40073;BME280;25774;52.256;9.356;2023-01-30T04:07:24;100164.47;;;4.11;100.00
40073;BME280;25774;52.256;9.356;2023-01-30T04:09:49;100163.88;;;4.29;100.00
40073;BME280;25774;52.256;9.356;2023-01-30T04:12:15;100159.66;;;4.25;100.00
40073;BME280;25774;52.256;9.356;2023-01-30T04:14:41;100155.09;;;4.32;100.00
40073;BME280;25774;52.256;9.356;2023-01-30T04:17:06;100163.38;;;4.18;100.00
40073;BME280;25774;52.256;9.356;2023-01-30T04:19:32;100159.50;;;4.30;100.00
40073;BME280;25774;52.256;9.356;2023-01-30T04:21:57;100158.72;;;4.28;100.00
40073;BME280;25774;52.256;9.356;2023-01-30T04:24:22;100136.94;;;4.27;100.00
40073;BME280;25774;52.256;9.356;2023-01-30T04:26:49;100140.47;;;4.26;100.00
40073;BME280;25774;52.256;9.356;2023-01-30T04:29:14;100137.72;;;4.31;100.00
40073;BME280;25774;52.256;9.356;2023-01-30T04:31:40;100152.06;;;4.44;100.00
40073;BME280;25774;52.256;9.356;2023-01-30T04:34:06;100150.00;;;4.27;100.00
40073;BME280;25774;52.256;9.356;2023-01-30T04:36:31;100159.59;;;4.53;100.00
40073;BME280;25774;52.256;9.356;2023-01-30T04:38:56;100160.47;;;4.52;100.00
40073;BME280;25774;52.256;9.356;2023-01-30T04:41:22;100150.63;;;4.34;100.00
40073;BME280;25774;52.256;9.356;2023-01-30T04:43:48;100149.38;;;4.46;100.00
40073;BME280;25774;52.256;9.356;2023-01-30T04:46:13;100162.31;;;4.50;100.00
40073;BME280;25774;52.256;9.356;2023-01-30T04:48:38;100149.59;;;4.39;100.00
40073;BME280;25774;52.256;9.356;2023-01-30T04:51:04;100170.38;;;4.42;100.00
40073;BME280;25774;52.256;9.356;2023-01-30T04:53:29;100158.38;;;4.37;100.00
40073;BME280;25774;52.256;9.356;2023-01-30T04:55:55;100167.69;;;4.46;100.00
40073;BME280;25774;52.256;9.356;2023-01-30T04:58:20;100158.88;;;4.48;100.00
40073;BME280;25774;52.256;9.356;2023-01-30T05:00:47;100160.59;;;4.49;100.00
40073;BME280;25774;52.256;9.356;2023-01-30T05:03:14;100161.41;;;4.51;100.00
40073;BME280;25774;52.256;9.356;2023-01-30T05:05:39;100162.13;;;4.55;100.00
40073;BME280;25774;52.256;9.356;2023-01-30T05:08:05;100156.59;;;4.39;100.00
40073;BME280;25774;52.256;9.356;2023-01-30T05:10:31;100154.94;;;4.61;100.00
40073;BME280;25774;52.256;9.356;2023-01-30T05:13:00;100156.09;;;4.53;100.00
40073;BME280;25774;52.256;9.356;2023-01-30T05:15:26;100161.19;;;4.57;100.00
40073;BME280;25774;52.256;9.356;2023-01-30T05:17:51;100149.25;;;4.50;100.00
40073;BME280;25774;52.256;9.356;2023-01-30T05:20:17;100152.38;;;4.60;100.00
40073;BME280;25774;52.256;9.356;2023-01-30T05:22:42;100172.06;;;4.70;100.00
40073;BME280;25774;52.256;9.356;2023-01-30T05:25:08;100158.38;;;4.63;100.00
40073;BME280;25774;52.256;9.356;2023-01-30T05:27:33;100172.63;;;4.78;100.00
40073;BME280;25774;52.256;9.356;2023-01-30T05:30:00;100169.81;;;4.59;100.00
40073;BME280;25774;52.256;9.356;2023-01-30T05:32:25;100176.03;;;4.57;100.00
40073;BME280;25774;52.256;9.356;2023-01-30T05:34:54;100201.94;;;4.63;100.00
40073;BME280;25774;52.256;9.356;2023-01-30T05:37:19;100192.06;;;4.71;100.00
40073;BME280;25774;52.256;9.356;2023-01-30T05:39:45;100208.50;;;4.75;100.00
40073;BME280;25774;52.256;9.356;2023-01-30T05:42:10;100213.94;;;4.69;100.00
40073;BME280;25774;52.256;9.356;2023-01-30T05:44:35;100211.41;;;4.65;100.00
40073;BME280;25774;52.256;9.356;2023-01-30T05:47:03;100220.03;;;4.69;100.00
40073;BME280;25774;52.256;9.356;2023-01-30T05:49:28;100221.66;;;4.72;100.00
40073;BME280;25774;52.256;9.356;2023-01-30T05:51:53;100217.47;;;4.68;100.00
40073;BME280;25774;52.256;9.356;2023-01-30T05:54:19;100221.47;;;4.78;100.00
40073;BME280;25774;52.256;9.356;2023-01-30T05:56:48;100220.47;;;4.82;100.00
40073;BME280;25774;52.256;9.356;2023-01-30T05:59:14;100214.22;;;4.86;100.00
40073;BME280;25774;52.256;9.356;2023-01-30T06:01:39;100216.84;;;4.86;100.00
40073;BME280;25774;52.256;9.356;2023-01-30T06:04:04;100225.13;;;4.97;100.00
40073;BME280;25774;52.256;9.356;2023-01-30T06:06:31;100224.25;;;4.98;100.00
40073;BME280;25774;52.256;9.356;2023-01-30T06:08:56;100210.16;;;5.02;100.00
40073;BME280;25774;52.256;9.356;2023-01-30T06:11:23;100190.88;;;5.05;100.00
40073;BME280;25774;52.256;9.356;2023-01-30T06:13:49;100192.25;;;5.15;100.00
40073;BME280;25774;52.256;9.356;2023-01-30T06:16:16;100185.22;;;5.17;100.00
40073;BME280;25774;52.256;9.356;2023-01-30T06:18:41;100171.25;;;5.17;100.00
40073;BME280;25774;52.256;9.356;2023-01-30T06:21:13;100172.53;;;5.30;100.00
40073;BME280;25774;52.256;9.356;2023-01-30T06:23:39;100171.25;;;5.17;100.00
40073;BME280;25774;52.256;9.356;2023-01-30T06:26:05;100185.03;;;5.22;100.00
40073;BME280;25774;52.256;9.356;2023-01-30T06:28:30;100188.47;;;5.24;100.00
40073;BME280;25774;52.256;9.356;2023-01-30T06:30:55;100191.34;;;5.16;100.00
40073;BME280;25774;52.256;9.356;2023-01-30T06:33:21;100181.94;;;5.10;100.00
40073;BME280;25774;52.256;9.356;2023-01-30T06:35:49;100187.06;;;5.13;100.00
40073;BME280;25774;52.256;9.356;2023-01-30T06:38:15;100198.78;;;5.03;100.00
40073;BME280;25774;52.256;9.356;2023-01-30T06:40:45;100200.91;;;5.17;100.00
40073;BME280;25774;52.256;9.356;2023-01-30T06:43:11;100205.03;;;5.23;100.00
40073;BME280;25774;52.256;9.356;2023-01-30T06:45:36;100208.94;;;5.36;100.00
40073;BME280;25774;52.256;9.356;2023-01-30T06:48:02;100201.81;;;5.16;100.00
40073;BME280;25774;52.256;9.356;2023-01-30T06:50:29;100186.06;;;5.18;100.00
40073;BME280;25774;52.256;9.356;2023-01-30T06:52:55;100200.41;;;5.07;100.00
40073;BME280;25774;52.256;9.356;2023-01-30T06:55:23;100215.03;;;5.36;100.00
40073;BME280;25774;52.256;9.356;2023-01-30T06:58:00;100203.16;;;5.26;100.00
40073;BME280;25774;52.256;9.356;2023-01-30T07:00:30;100202.44;;;5.23;100.00
40073;BME280;25774;52.256;9.356;2023-01-30T07:02:56;100197.44;;;5.40;100.00
40073;BME280;25774;52.256;9.356;2023-01-30T07:05:21;100203.03;;;5.31;100.00
40073;BME280;25774;52.256;9.356;2023-01-30T07:07:46;100178.88;;;5.23;100.00
40073;BME280;25774;52.256;9.356;2023-01-30T07:10:12;100162.00;;;5.08;100.00
40073;BME280;25774;52.256;9.356;2023-01-30T07:12:37;100175.00;;;5.09;100.00
40073;BME280;25774;52.256;9.356;2023-01-30T07:15:04;100155.22;;;5.02;100.00
40073;BME280;25774;52.256;9.356;2023-01-30T07:17:31;100146.47;;;5.03;100.00
40073;BME280;25774;52.256;9.356;2023-01-30T07:19:56;100150.81;;;5.28;100.00
40073;BME280;25774;52.256;9.356;2023-01-30T07:22:28;100128.78;;;5.10;100.00
40073;BME280;25774;52.256;9.356;2023-01-30T07:24:53;100124.16;;;4.95;100.00
40073;BME280;25774;52.256;9.356;2023-01-30T07:27:18;100131.81;;;4.99;100.00
40073;BME280;25774;52.256;9.356;2023-01-30T07:29:43;100127.75;;;4.90;100.00
40073;BME280;25774;52.256;9.356;2023-01-30T07:32:18;100131.06;;;4.96;100.00
40073;BME280;25774;52.256;9.356;2023-01-30T07:34:46;100119.34;;;5.06;100.00
40073;BME280;25774;52.256;9.356;2023-01-30T07:37:12;100119.25;;;5.09;100.00
40073;BME280;25774;52.256;9.356;2023-01-30T07:39:37;100109.75;;;5.06;100.00
40073;BME280;25774;52.256;9.356;2023-01-30T07:42:03;100108.22;;;5.24;100.00
40073;BME280;25774;52.256;9.356;2023-01-30T07:44:28;100093.78;;;5.14;100.00
40073;BME280;25774;52.256;9.356;2023-01-30T07:46:54;100088.44;;;5.17;100.00
40073;BME280;25774;52.256;9.356;2023-01-30T07:49:19;100095.63;;;5.10;100.00
40073;BME280;25774;52.256;9.356;2023-01-30T07:51:45;100079.91;;;5.12;100.00
40073;BME280;25774;52.256;9.356;2023-01-30T07:54:10;100062.09;;;5.22;100.00
40073;BME280;25774;52.256;9.356;2023-01-30T07:56:36;100060.63;;;5.15;100.00
40073;BME280;25774;52.256;9.356;2023-01-30T07:59:01;100039.31;;;5.02;100.00
40073;BME280;25774;52.256;9.356;2023-01-30T08:01:28;100034.38;;;5.16;100.00
40073;BME280;25774;52.256;9.356;2023-01-30T08:03:53;100028.06;;;5.00;100.00
40073;BME280;25774;52.256;9.356;2023-01-30T08:06:18;100021.91;;;5.01;100.00
40073;BME280;25774;52.256;9.356;2023-01-30T08:08:44;100019.53;;;5.17;100.00
40073;BME280;25774;52.256;9.356;2023-01-30T08:11:09;99997.84;;;5.15;100.00
40073;BME280;25774;52.256;9.356;2023-01-30T08:13:35;99984.31;;;5.03;100.00
40073;BME280;25774;52.256;9.356;2023-01-30T08:16:01;99979.91;;;5.05;100.00
40073;BME280;25774;52.256;9.356;2023-01-30T08:18:28;99992.06;;;5.28;100.00
40073;BME280;25774;52.256;9.356;2023-01-30T08:20:57;99988.72;;;5.25;100.00
40073;BME280;25774;52.256;9.356;2023-01-30T08:23:23;99991.88;;;5.33;100.00
40073;BME280;25774;52.256;9.356;2023-01-30T08:25:49;99981.59;;;5.28;100.00
40073;BME280;25774;52.256;9.356;2023-01-30T08:28:18;99977.28;;;5.27;100.00
40073;BME280;25774;52.256;9.356;2023-01-30T08:30:43;99967.06;;;5.21;100.00
40073;BME280;25774;52.256;9.356;2023-01-30T08:33:08;99953.50;;;5.11;100.00
40073;BME280;25774;52.256;9.356;2023-01-30T08:35:33;99951.50;;;5.39;100.00
40073;BME280;25774;52.256;9.356;2023-01-30T08:37:59;99948.28;;;5.32;100.00
40073;BME280;25774;52.256;9.356;2023-01-30T08:40:24;99959.00;;;5.26;100.00
40073;BME280;25774;52.256;9.356;2023-01-30T08:42:49;99968.72;;;5.44;100.00
40073;BME280;25774;52.256;9.356;2023-01-30T08:45:15;99953.34;;;5.36;100.00
40073;BME280;25774;52.256;9.356;2023-01-30T08:47:41;99954.94;;;5.41;100.00
40073;BME280;25774;52.256;9.356;2023-01-30T08:50:06;99937.59;;;5.38;100.00
40073;BME280;25774;52.256;9.356;2023-01-30T08:52:32;99957.34;;;5.45;100.00
40073;BME280;25774;52.256;9.356;2023-01-30T08:54:57;99954.28;;;5.56;100.00
40073;BME280;25774;52.256;9.356;2023-01-30T08:57:23;99949.16;;;5.32;100.00
40073;BME280;25774;52.256;9.356;2023-01-30T08:59:48;99944.38;;;5.42;100.00
40073;BME280;25774;52.256;9.356;2023-01-30T09:02:15;99955.91;;;5.38;100.00
40073;BME280;25774;52.256;9.356;2023-01-30T09:04:41;99951.84;;;5.51;100.00
40073;BME280;25774;52.256;9.356;2023-01-30T09:07:06;99947.94;;;5.41;100.00
40073;BME280;25774;52.256;9.356;2023-01-30T09:09:32;99939.59;;;5.31;100.00
40073;BME280;25774;52.256;9.356;2023-01-30T09:12:00;99936.66;;;5.39;100.00
40073;BME280;25774;52.256;9.356;2023-01-30T09:14:27;99951.47;;;5.40;100.00
40073;BME280;25774;52.256;9.356;2023-01-30T09:16:52;99930.03;;;5.52;100.00
40073;BME280;25774;52.256;9.356;2023-01-30T09:19:27;99909.59;;;5.40;100.00
40073;BME280;25774;52.256;9.356;2023-01-30T09:21:53;99907.50;;;5.48;100.00
40073;BME280;25774;52.256;9.356;2023-01-30T09:24:20;99903.13;;;5.49;100.00
40073;BME280;25774;52.256;9.356;2023-01-30T09:26:54;99896.38;;;5.43;100.00
40073;BME280;25774;52.256;9.356;2023-01-30T09:29:22;99883.31;;;5.43;100.00
40073;BME280;25774;52.256;9.356;2023-01-30T09:31:47;99894.41;;;5.48;100.00
40073;BME280;25774;52.256;9.356;2023-01-30T09:34:13;99892.19;;;5.59;100.00
40073;BME280;25774;52.256;9.356;2023-01-30T09:36:38;99891.13;;;5.64;100.00
40073;BME280;25774;52.256;9.356;2023-01-30T09:39:04;99890.34;;;5.82;100.00
40073;BME280;25774;52.256;9.356;2023-01-30T09:41:44;99890.97;;;5.68;100.00
40073;BME280;25774;52.256;9.356;2023-01-30T09:44:32;99883.41;;;5.60;100.00
40073;BME280;25774;52.256;9.356;2023-01-30T09:47:14;99868.28;;;5.67;100.00
40073;BME280;25774;52.256;9.356;2023-01-30T09:52:29;99865.66;;;5.67;100.00
40073;BME280;25774;52.256;9.356;2023-01-30T09:55:15;99869.09;;;5.69;100.00
40073;BME280;25774;52.256;9.356;2023-01-30T09:57:42;99876.97;;;5.88;100.00
40073;BME280;25774;52.256;9.356;2023-01-30T10:05:50;99885.91;;;5.84;100.00
40073;BME280;25774;52.256;9.356;2023-01-30T10:08:41;99875.03;;;5.73;100.00
40073;BME280;25774;52.256;9.356;2023-01-30T10:16:35;99891.47;;;5.76;100.00
40073;BME280;25774;52.256;9.356;2023-01-30T10:21:46;99883.09;;;5.68;100.00
40073;BME280;25774;52.256;9.356;2023-01-30T10:26:51;99887.41;;;5.69;100.00
40073;BME280;25774;52.256;9.356;2023-01-30T10:31:49;99875.44;;;5.64;100.00
40073;BME280;25774;52.256;9.356;2023-01-30T10:34:21;99884.44;;;5.77;100.00
40073;BME280;25774;52.256;9.356;2023-01-30T10:37:02;99883.75;;;5.53;100.00
40073;BME280;25774;52.256;9.356;2023-01-30T10:39:40;99894.28;;;5.72;100.00
40073;BME280;25774;52.256;9.356;2023-01-30T10:42:13;99897.81;;;5.91;100.00
40073;BME280;25774;52.256;9.356;2023-01-30T10:44:44;99892.28;;;6.18;100.00
40073;BME280;25774;52.256;9.356;2023-01-30T10:50:00;99858.91;;;6.02;100.00
40073;BME280;25774;52.256;9.356;2023-01-30T10:52:47;99852.25;;;6.14;100.00
40073;BME280;25774;52.256;9.356;2023-01-30T10:55:31;99843.47;;;5.96;100.00
40073;BME280;25774;52.256;9.356;2023-01-30T11:01:07;99841.81;;;5.54;100.00
40073;BME280;25774;52.256;9.356;2023-01-30T11:03:40;99832.34;;;5.71;100.00
40073;BME280;25774;52.256;9.356;2023-01-30T11:06:16;99832.63;;;5.65;100.00
40073;BME280;25774;52.256;9.356;2023-01-30T11:08:43;99849.00;;;5.70;100.00
40073;BME280;25774;52.256;9.356;2023-01-30T11:11:29;99854.03;;;6.14;100.00
40073;BME280;25774;52.256;9.356;2023-01-30T11:14:08;99862.81;;;6.13;100.00
40073;BME280;25774;52.256;9.356;2023-01-30T11:16:55;99850.22;;;6.21;100.00
40073;BME280;25774;52.256;9.356;2023-01-30T11:19:24;99864.00;;;6.24;100.00
40073;BME280;25774;52.256;9.356;2023-01-30T11:21:54;99857.13;;;6.60;100.00
40073;BME280;25774;52.256;9.356;2023-01-30T11:24:41;99844.53;;;6.49;100.00
40073;BME280;25774;52.256;9.356;2023-01-30T11:27:23;99817.56;;;6.28;100.00
40073;BME280;25774;52.256;9.356;2023-01-30T11:30:01;99815.78;;;6.28;100.00
40073;BME280;25774;52.256;9.356;2023-01-30T11:32:28;99802.13;;;6.22;100.00
40073;BME280;25774;52.256;9.356;2023-01-30T11:35:19;99815.19;;;6.41;100.00
40073;BME280;25774;52.256;9.356;2023-01-30T11:37:46;99789.75;;;6.07;100.00
40073;BME280;25774;52.256;9.356;2023-01-30T11:43:02;99794.72;;;6.49;100.00
40073;BME280;25774;52.256;9.356;2023-01-30T11:45:32;99776.31;;;6.32;100.00
40073;BME280;25774;52.256;9.356;2023-01-30T11:48:00;99787.66;;;6.68;100.00
40073;BME280;25774;52.256;9.356;2023-01-30T11:50:49;99770.84;;;6.72;100.00
40073;BME280;25774;52.256;9.356;2023-01-30T11:53:30;99773.06;;;6.63;100.00
40073;BME280;25774;52.256;9.356;2023-01-30T11:55:59;99746.41;;;6.55;100.00
40073;BME280;25774;52.256;9.356;2023-01-30T11:58:30;99764.91;;;6.69;100.00
40073;BME280;25774;52.256;9.356;2023-01-30T12:00:57;99733.34;;;6.53;100.00
40073;BME280;25774;52.256;9.356;2023-01-30T12:03:22;99741.22;;;6.53;100.00
40073;BME280;25774;52.256;9.356;2023-01-30T12:05:50;99729.25;;;6.30;100.00
40073;BME280;25774;52.256;9.356;2023-01-30T12:10:55;99767.50;;;6.15;100.00
40073;BME280;25774;52.256;9.356;2023-01-30T12:13:41;99792.31;;;5.69;100.00
40073;BME280;25774;52.256;9.356;2023-01-30T12:16:19;99817.72;;;5.67;100.00
40073;BME280;25774;52.256;9.356;2023-01-30T12:21:46;99834.59;;;5.59;100.00
40073;BME280;25774;52.256;9.356;2023-01-30T12:26:46;99839.91;;;5.38;100.00
40073;BME280;25774;52.256;9.356;2023-01-30T12:29:28;99852.66;;;5.45;100.00
40073;BME280;25774;52.256;9.356;2023-01-30T12:34:24;99837.97;;;5.43;100.00
40073;BME280;25774;52.256;9.356;2023-01-30T12:47:29;99774.47;;;5.77;100.00
40073;BME280;25774;52.256;9.356;2023-01-30T12:58:22;99800.84;;;6.12;100.00
40073;BME280;25774;52.256;9.356;2023-01-30T13:03:33;99795.72;;;5.90;100.00
40073;BME280;25774;52.256;9.356;2023-01-30T13:19:32;99845.19;;;6.16;100.00
40073;BME280;25774;52.256;9.356;2023-01-30T13:22:03;99834.34;;;6.43;100.00
40073;BME280;25774;52.256;9.356;2023-01-30T13:27:18;99806.41;;;6.61;100.00
40073;BME280;25774;52.256;9.356;2023-01-30T13:29:47;99808.50;;;6.35;100.00
40073;BME280;25774;52.256;9.356;2023-01-30T13:32:39;99829.16;;;6.41;100.00
40073;BME280;25774;52.256;9.356;2023-01-30T13:35:31;99830.72;;;6.45;100.00
40073;BME280;25774;52.256;9.356;2023-01-30T13:37:59;99813.53;;;6.21;100.00
40073;BME280;25774;52.256;9.356;2023-01-30T13:40:31;99825.22;;;6.14;100.00
40073;BME280;25774;52.256;9.356;2023-01-30T13:43:20;99822.88;;;6.45;100.00
40073;BME280;25774;52.256;9.356;2023-01-30T13:45:49;99828.47;;;6.19;100.00
40073;BME280;25774;52.256;9.356;2023-01-30T13:56:40;99856.94;;;6.26;100.00
40073;BME280;25774;52.256;9.356;2023-01-30T14:07:17;99922.16;;;5.52;100.00
40073;BME280;25774;52.256;9.356;2023-01-30T14:10:02;99943.06;;;5.74;100.00
40073;BME280;25774;52.256;9.356;2023-01-30T14:12:35;99945.97;;;5.46;100.00
40073;BME280;25774;52.256;9.356;2023-01-30T14:15:09;99961.13;;;5.38;100.00
40073;BME280;25774;52.256;9.356;2023-01-30T14:18:06;99981.66;;;5.49;100.00
40073;BME280;25774;52.256;9.356;2023-01-30T14:20:43;99988.19;;;5.59;100.00
40073;BME280;25774;52.256;9.356;2023-01-30T14:23:23;99980.13;;;5.64;100.00
40073;BME280;25774;52.256;9.356;2023-01-30T14:25:50;100001.56;;;5.73;100.00
40073;BME280;25774;52.256;9.356;2023-01-30T14:33:49;99993.78;;;5.92;100.00
40073;BME280;25774;52.256;9.356;2023-01-30T14:36:32;99992.63;;;5.99;100.00
40073;BME280;25774;52.256;9.356;2023-01-30T14:39:38;99984.84;;;5.98;100.00
40073;BME280;25774;52.256;9.356;2023-01-30T14:42:30;99965.78;;;5.94;100.00
40073;BME280;25774;52.256;9.356;2023-01-30T14:47:35;99960.88;;;6.07;100.00
40073;BME280;25774;52.256;9.356;2023-01-30T14:50:01;99969.34;;;5.92;100.00
40073;BME280;25774;52.256;9.356;2023-01-30T14:52:40;99987.78;;;6.11;100.00
40073;BME280;25774;52.256;9.356;2023-01-30T14:55:16;99993.53;;;6.19;100.00
40073;BME280;25774;52.256;9.356;2023-01-30T14:58:02;99981.22;;;6.21;100.00
40073;BME280;25774;52.256;9.356;2023-01-30T15:00:30;99994.97;;;6.05;100.00
40073;BME280;25774;52.256;9.356;2023-01-30T15:03:02;99987.91;;;6.08;100.00
40073;BME280;25774;52.256;9.356;2023-01-30T15:05:36;99990.66;;;6.04;100.00
40073;BME280;25774;52.256;9.356;2023-01-30T15:08:06;99963.69;;;6.02;100.00
40073;BME280;25774;52.256;9.356;2023-01-30T15:22:15;100022.69;;;6.11;100.00
40073;BME280;25774;52.256;9.356;2023-01-30T15:33:20;100086.38;;;5.91;100.00
40073;BME280;25774;52.256;9.356;2023-01-30T15:35:46;100108.22;;;5.90;100.00
40073;BME280;25774;52.256;9.356;2023-01-30T15:40:53;100115.34;;;5.87;100.00
40073;BME280;25774;52.256;9.356;2023-01-30T15:48:59;100126.38;;;5.51;100.00